createdAt,value
2018-07-19T00:02:10.043Z,51.20
2018-07-19T00:04:40.158Z,51.50
2018-07-19T00:07:10.092Z,51.80
2018-07-19T00:09:40.150Z,52.10
2018-07-19T00:14:39.854Z,51.70
2018-07-19T00:17:09.936Z,52.00
2018-07-19T00:19:39.884Z,52.20
2018-07-19T00:22:09.830Z,52.10
2018-07-19T00:24:39.900Z,52.40
2018-07-19T00:27:09.953Z,52.50
2018-07-19T00:32:09.601Z,52.90
2018-07-19T00:34:39.698Z,52.70
2018-07-19T00:37:09.673Z,52.80
2018-07-19T00:39:39.677Z,52.90
2018-07-19T00:42:09.722Z,52.90
2018-07-19T00:47:09.553Z,53.30
2018-07-19T00:49:39.842Z,53.10
2018-07-19T00:52:09.911Z,53.20
2018-07-19T00:54:39.942Z,53.60
2018-07-19T00:57:10.060Z,53.50
2018-07-19T00:59:41.224Z,53.50
2018-07-19T01:02:11.468Z,53.60
2018-07-19T01:04:41.521Z,53.50
2018-07-19T01:07:11.561Z,53.80
2018-07-19T01:09:41.629Z,53.80
2018-07-19T01:12:11.833Z,54.00
2018-07-19T01:14:41.913Z,53.90
2018-07-19T01:17:11.924Z,55.00
2018-07-19T01:19:41.958Z,54.80
2018-07-19T01:22:11.909Z,54.80
2018-07-19T01:24:41.963Z,54.70
2018-07-19T01:27:12.016Z,54.80
2018-07-19T01:29:42.022Z,54.70
2018-07-19T01:32:12.170Z,54.70
2018-07-19T01:34:42.265Z,54.70
2018-07-19T01:37:12.276Z,54.60
2018-07-19T01:39:42.259Z,54.60
2018-07-19T01:42:29.909Z,54.70
2018-07-19T01:45:00.069Z,55.00
2018-07-19T01:47:30.192Z,55.10
2018-07-19T01:50:00.216Z,55.10
2018-07-19T01:52:30.257Z,55.50
2018-07-19T01:55:00.551Z,55.60
2018-07-19T01:57:30.641Z,55.80
2018-07-19T02:02:30.438Z,55.90
2018-07-19T02:09:59.953Z,56.40
2018-07-19T02:12:29.962Z,56.70
2018-07-19T02:15:00.133Z,56.80
2018-07-19T02:17:30.118Z,56.70
2018-07-19T02:20:00.221Z,56.20
2018-07-19T02:22:30.240Z,56.80
2018-07-19T02:25:00.382Z,57.00
2018-07-19T02:27:30.426Z,57.20
2018-07-19T02:30:00.457Z,57.50
2018-07-19T02:32:30.584Z,57.60
2018-07-19T02:35:00.627Z,57.70
2018-07-19T02:37:30.679Z,57.80
2018-07-19T02:40:00.719Z,58.00
2018-07-19T02:42:30.843Z,58.10
2018-07-19T02:45:00.837Z,58.20
2018-07-19T02:47:30.915Z,58.50
2018-07-19T02:50:00.921Z,58.50
2018-07-19T02:52:30.918Z,58.50
2018-07-19T02:57:30.613Z,58.50
2018-07-19T03:00:00.609Z,58.50
2018-07-19T03:02:30.576Z,58.50
2018-07-19T03:05:01.035Z,58.40
2018-07-19T03:07:31.108Z,58.40
2018-07-19T03:10:01.179Z,58.40
2018-07-19T03:12:31.405Z,58.60
2018-07-19T03:15:01.435Z,58.70
2018-07-19T03:17:31.515Z,58.40
2018-07-19T03:20:01.544Z,58.80
2018-07-19T03:22:33.050Z,58.70
2018-07-19T03:25:03.999Z,59.00
2018-07-19T03:27:34.270Z,59.10
2018-07-19T03:30:04.332Z,59.20
2018-07-19T03:32:34.378Z,59.80
2018-07-19T03:35:04.442Z,59.10
2018-07-19T03:37:34.986Z,59.00
2018-07-19T03:40:05.076Z,59.10
2018-07-19T03:42:35.175Z,59.40
2018-07-19T03:45:05.228Z,59.40
2018-07-19T03:47:35.231Z,59.40
2018-07-19T03:50:05.570Z,59.40
2018-07-19T03:52:35.914Z,59.60
2018-07-19T03:55:06.110Z,59.40
2018-07-19T03:57:36.577Z,59.20
2018-07-19T04:02:36.280Z,59.10
2018-07-19T04:07:36.214Z,59.40
2018-07-19T04:10:06.316Z,59.60
2018-07-19T04:12:36.386Z,59.60
2018-07-19T04:15:06.806Z,59.70
2018-07-19T04:20:10.947Z,59.90
2018-07-19T04:22:40.909Z,60.10
2018-07-19T04:25:10.885Z,60.00
2018-07-19T04:27:41.059Z,60.00
2018-07-19T04:30:11.152Z,60.00
2018-07-19T04:35:10.905Z,60.00
2018-07-19T04:37:40.955Z,60.20
2018-07-19T04:40:11.221Z,59.80
2018-07-19T04:42:41.309Z,59.80
2018-07-19T04:45:11.557Z,59.50
2018-07-19T04:50:12.260Z,59.50
2018-07-19T04:52:42.304Z,59.50
2018-07-19T04:55:12.543Z,59.60
2018-07-19T04:57:42.545Z,59.80
2018-07-19T05:00:12.561Z,59.60
2018-07-19T05:02:42.533Z,59.90
2018-07-19T05:05:12.646Z,59.80
2018-07-19T05:07:42.727Z,60.00
2018-07-19T05:10:12.742Z,59.70
2018-07-19T05:12:42.766Z,59.60
2018-07-19T05:15:12.886Z,59.00
2018-07-19T05:17:42.893Z,59.20
2018-07-19T05:20:12.938Z,59.70
2018-07-19T05:22:42.952Z,59.90
2018-07-19T05:27:42.632Z,59.60
2018-07-19T05:30:12.718Z,59.80
2018-07-19T05:32:42.891Z,59.20
2018-07-19T05:35:13.043Z,59.60
2018-07-19T05:40:13.344Z,59.60
2018-07-19T05:42:43.410Z,59.60
2018-07-19T05:45:13.528Z,59.40
2018-07-19T05:47:43.576Z,59.40
2018-07-19T05:50:17.717Z,59.40
2018-07-19T05:52:47.754Z,59.50
2018-07-19T05:55:17.820Z,59.60
2018-07-19T05:57:47.991Z,59.70
2018-07-19T06:00:18.386Z,59.80
2018-07-19T06:02:48.507Z,59.10
2018-07-19T06:05:18.509Z,59.20
2018-07-19T06:07:50.710Z,59.30
2018-07-19T06:10:20.799Z,59.20
2018-07-19T06:12:50.913Z,59.50
2018-07-19T06:17:50.592Z,59.30
2018-07-19T06:22:50.310Z,60.10
2018-07-19T06:25:20.406Z,60.20
2018-07-19T06:27:50.435Z,59.60
2018-07-19T06:30:20.488Z,59.80
2018-07-19T06:32:50.668Z,59.40
2018-07-19T06:35:20.702Z,59.60
2018-07-19T06:37:50.858Z,58.90
2018-07-19T06:40:20.994Z,58.40
2018-07-19T06:42:51.049Z,58.50
2018-07-19T06:45:21.115Z,58.80
2018-07-19T06:47:51.146Z,58.40
2018-07-19T06:50:21.177Z,57.80
2018-07-19T06:52:51.133Z,57.20
2018-07-19T06:55:21.158Z,56.70
2018-07-19T06:57:51.213Z,56.70
2018-07-19T07:00:21.251Z,55.90
2018-07-19T07:02:51.294Z,55.20
2018-07-19T07:05:21.413Z,55.90
2018-07-19T07:07:51.499Z,55.70
2018-07-19T07:10:21.804Z,55.90
2018-07-19T07:12:52.089Z,55.20
2018-07-19T07:15:22.187Z,55.60
2018-07-19T07:17:52.140Z,55.90
2018-07-19T07:20:22.197Z,56.60
2018-07-19T07:22:52.348Z,56.50
2018-07-19T07:25:22.413Z,56.40
2018-07-19T07:27:52.426Z,57.50
2018-07-19T07:30:22.464Z,57.50
2018-07-19T07:32:58.994Z,57.60
2018-07-19T07:35:29.067Z,58.70
2018-07-19T07:37:59.121Z,57.90
2018-07-19T07:40:29.170Z,58.70
2018-07-19T07:50:28.986Z,58.30
2018-07-19T07:52:59.117Z,58.00
2018-07-19T07:55:29.125Z,58.20
2018-07-19T07:57:59.115Z,58.20
2018-07-19T08:00:29.118Z,58.10
2018-07-19T08:02:59.156Z,58.30
2018-07-19T08:05:29.261Z,58.50
2018-07-19T08:07:59.301Z,58.30
2018-07-19T08:10:29.405Z,58.20
2018-07-19T08:12:59.425Z,58.20
2018-07-19T08:15:29.445Z,58.10
2018-07-19T08:17:59.400Z,57.30
2018-07-19T08:20:29.505Z,57.50
2018-07-19T08:22:59.586Z,57.10
2018-07-19T08:25:29.801Z,57.40
2018-07-19T08:30:29.503Z,57.90
2018-07-19T08:32:59.594Z,58.10
2018-07-19T08:35:29.640Z,58.40
2018-07-19T08:37:59.650Z,58.10
2018-07-19T08:40:29.801Z,58.30
2018-07-19T08:43:00.049Z,58.20
2018-07-19T08:45:30.121Z,58.00
2018-07-19T08:48:00.129Z,58.00
2018-07-19T08:50:30.223Z,58.30
2018-07-19T08:53:00.343Z,58.10
2018-07-19T08:55:30.366Z,58.10
2018-07-19T08:58:00.405Z,58.20
2018-07-19T09:00:30.506Z,58.30
2018-07-19T09:03:00.485Z,58.00
2018-07-19T09:05:30.440Z,58.20
2018-07-19T09:08:00.540Z,59.20
2018-07-19T09:10:30.565Z,60.00
2018-07-19T09:13:00.822Z,60.70
2018-07-19T09:15:30.857Z,61.00
2018-07-19T09:18:00.878Z,61.80
2018-07-19T09:20:31.828Z,63.00
2018-07-19T09:23:02.046Z,63.30
2018-07-19T09:25:32.109Z,62.20
2018-07-19T09:30:31.786Z,59.90
2018-07-19T09:33:01.776Z,60.60
2018-07-19T09:35:31.825Z,59.50
2018-07-19T09:38:01.854Z,58.70
2018-07-19T09:40:31.947Z,58.50
2018-07-19T09:43:02.011Z,57.90
2018-07-19T09:45:32.336Z,57.30
2018-07-19T09:48:02.296Z,57.20
2018-07-19T09:50:32.251Z,57.50
2018-07-19T09:53:02.292Z,56.80
2018-07-19T09:55:32.347Z,56.90
2018-07-19T09:58:02.582Z,56.10
2018-07-19T10:00:38.142Z,55.90
2018-07-19T10:03:08.228Z,55.40
2018-07-19T10:05:38.308Z,55.10
2018-07-19T10:10:38.191Z,54.60
2018-07-19T10:13:08.222Z,55.00
2018-07-19T10:18:08.119Z,53.90
2018-07-19T10:20:38.200Z,53.40
2018-07-19T10:23:09.148Z,53.20
2018-07-19T10:25:39.202Z,53.20
2018-07-19T10:28:09.670Z,52.70
2018-07-19T10:30:39.723Z,52.70
2018-07-19T10:33:09.778Z,52.60
2018-07-19T10:35:39.909Z,52.60
2018-07-19T10:38:09.962Z,52.60
2018-07-19T10:40:40.018Z,52.00
2018-07-19T10:43:10.071Z,52.40
2018-07-19T10:45:40.195Z,51.90
2018-07-19T10:48:10.257Z,52.00
2018-07-19T10:50:40.263Z,51.50
2018-07-19T10:53:10.229Z,51.30
2018-07-19T10:55:40.238Z,51.10
2018-07-19T10:58:10.210Z,51.20
2018-07-19T11:00:40.157Z,50.90
2018-07-19T11:03:10.138Z,49.70
2018-07-19T11:05:40.345Z,50.30
2018-07-19T11:08:10.381Z,50.30
2018-07-19T11:10:40.344Z,49.00
2018-07-19T11:13:10.329Z,49.70
2018-07-19T11:15:40.427Z,49.80
2018-07-19T11:18:11.465Z,49.80
2018-07-19T11:20:41.485Z,48.80
2018-07-19T11:23:11.448Z,48.70
2018-07-19T11:25:41.386Z,49.20
2018-07-19T11:28:11.409Z,49.60
2018-07-19T11:30:41.450Z,50.60
2018-07-19T11:33:11.564Z,50.20
2018-07-19T11:35:41.535Z,50.50
2018-07-19T11:38:11.523Z,50.30
2018-07-19T11:40:41.502Z,49.90
2018-07-19T11:43:11.536Z,49.70
2018-07-19T11:45:41.529Z,49.70
2018-07-19T11:48:11.502Z,49.70
2018-07-19T11:50:41.471Z,49.70
2018-07-19T11:53:11.546Z,50.00
2018-07-19T11:55:41.581Z,50.00
2018-07-19T11:58:11.564Z,50.50
2018-07-19T12:00:41.549Z,50.00
2018-07-19T12:05:41.260Z,50.90
2018-07-19T12:08:11.229Z,51.60
2018-07-19T12:10:41.242Z,52.50
2018-07-19T12:13:11.274Z,54.50
2018-07-19T12:18:11.174Z,55.00
2018-07-19T12:23:10.820Z,56.90
2018-07-19T12:28:11.025Z,58.00
2018-07-19T12:35:40.633Z,57.40
2018-07-19T12:38:10.637Z,57.60
2018-07-19T12:40:40.819Z,58.10
2018-07-19T12:43:10.797Z,56.90
2018-07-19T12:45:40.770Z,58.20
2018-07-19T12:48:11.144Z,58.20
2018-07-19T12:50:41.219Z,57.50
2018-07-19T12:53:11.254Z,56.60
2018-07-19T12:55:41.218Z,56.50
2018-07-19T13:00:40.887Z,56.50
2018-07-19T13:03:10.848Z,56.40
2018-07-19T13:05:40.885Z,57.20
2018-07-19T13:08:10.894Z,57.80
2018-07-19T13:10:40.851Z,58.20
2018-07-19T13:13:10.851Z,57.30
2018-07-19T13:15:42.144Z,58.30
2018-07-19T13:18:12.156Z,57.60
2018-07-19T13:20:42.239Z,56.50
2018-07-19T13:23:12.502Z,56.70
2018-07-19T13:25:42.626Z,55.80
2018-07-19T13:28:12.597Z,54.50
2018-07-19T13:30:42.628Z,54.60
2018-07-19T13:33:12.679Z,53.80
2018-07-19T13:35:42.681Z,52.80
2018-07-19T13:38:12.628Z,52.30
2018-07-19T13:40:42.577Z,52.30
2018-07-19T13:43:12.594Z,53.40
2018-07-19T13:48:12.296Z,50.60
2018-07-19T13:50:42.276Z,50.40
2018-07-19T13:53:42.165Z,49.80
2018-07-19T13:56:12.693Z,47.70
2018-07-19T13:58:42.669Z,48.50
2018-07-19T14:03:42.272Z,47.40
2018-07-19T14:06:12.355Z,47.20
2018-07-19T14:08:42.414Z,46.10
2018-07-19T14:11:12.504Z,46.20
2018-07-19T14:13:42.523Z,44.20
2018-07-19T14:18:42.319Z,44.30
2018-07-19T14:21:12.399Z,44.40
2018-07-19T14:23:42.386Z,43.40
2018-07-19T14:26:12.503Z,42.50
2018-07-19T14:28:42.481Z,42.70
2018-07-19T14:31:12.428Z,43.00
2018-07-19T14:36:12.045Z,42.10
2018-07-19T14:38:42.098Z,41.80
2018-07-19T14:41:12.201Z,42.20
2018-07-19T14:46:11.867Z,40.90
2018-07-19T14:48:41.880Z,40.60
2018-07-19T14:51:12.467Z,40.60
2018-07-19T14:53:42.437Z,39.90
2018-07-19T14:56:12.426Z,39.10
2018-07-19T14:58:42.457Z,40.50
2018-07-19T15:01:12.462Z,40.50
2018-07-19T15:06:12.282Z,40.60
2018-07-19T15:08:42.321Z,40.60
2018-07-19T15:11:12.436Z,39.50
2018-07-19T15:13:42.540Z,39.40
2018-07-19T15:16:12.497Z,38.70
2018-07-19T15:18:42.597Z,40.30
2018-07-19T15:21:12.571Z,39.50
2018-07-19T15:23:42.549Z,38.70
2018-07-19T15:26:12.545Z,39.70
2018-07-19T15:28:42.516Z,39.10
2018-07-19T15:31:12.573Z,39.40
2018-07-19T15:33:42.549Z,39.00
2018-07-19T15:36:12.585Z,39.90
2018-07-19T15:41:12.238Z,38.50
2018-07-19T15:43:42.410Z,38.60
2018-07-19T15:48:42.068Z,38.50
2018-07-19T15:51:12.066Z,39.10
2018-07-19T15:53:42.103Z,37.90
2018-07-19T15:56:12.095Z,38.50
2018-07-19T15:58:42.057Z,38.20
2018-07-19T16:01:12.128Z,38.40
2018-07-19T16:03:42.249Z,38.50
2018-07-19T16:06:12.314Z,37.80
2018-07-19T16:08:42.311Z,38.30
2018-07-19T16:11:12.259Z,37.40
2018-07-19T16:13:42.272Z,37.70
2018-07-19T16:16:12.241Z,37.70
2018-07-19T16:18:42.230Z,37.40
2018-07-19T16:23:41.890Z,36.50
2018-07-19T16:26:11.861Z,35.90
2018-07-19T16:28:41.881Z,35.80
2018-07-19T16:31:11.931Z,35.20
2018-07-19T16:33:41.944Z,35.10
2018-07-19T16:36:11.933Z,35.00
2018-07-19T16:41:11.682Z,35.60
2018-07-19T16:43:41.680Z,35.20
2018-07-19T16:46:11.690Z,35.40
2018-07-19T16:48:41.715Z,35.60
2018-07-19T16:51:11.694Z,36.50
2018-07-19T16:53:41.755Z,35.70
2018-07-19T16:58:41.472Z,35.30
2018-07-19T17:01:11.459Z,36.00
2018-07-19T17:06:11.056Z,35.80
2018-07-19T17:08:41.145Z,35.70
2018-07-19T17:11:11.220Z,34.30
2018-07-19T17:13:41.216Z,34.30
2018-07-19T17:16:12.145Z,34.60
2018-07-19T17:18:42.437Z,34.70
2018-07-19T17:21:12.585Z,34.10
2018-07-19T17:23:42.657Z,34.10
2018-07-19T17:26:14.734Z,34.50
2018-07-19T17:28:44.786Z,34.20
2018-07-19T17:31:14.806Z,34.10
2018-07-19T17:33:44.905Z,34.60
2018-07-19T17:36:14.878Z,33.80
2018-07-19T17:38:44.941Z,33.70
2018-07-19T17:41:14.951Z,33.50
2018-07-19T17:46:15.323Z,34.40
2018-07-19T17:48:45.327Z,33.90
2018-07-19T17:51:15.464Z,33.30
2018-07-19T17:53:46.198Z,33.00
2018-07-19T17:56:16.181Z,33.00
2018-07-19T17:58:46.273Z,32.60
2018-07-19T18:01:16.312Z,32.70
2018-07-19T18:03:46.357Z,32.60
2018-07-19T18:06:16.456Z,33.40
2018-07-19T18:08:46.408Z,32.60
2018-07-19T18:11:16.402Z,32.50
2018-07-19T18:16:16.093Z,33.20
2018-07-19T18:18:46.113Z,32.60
2018-07-19T18:21:16.102Z,33.00
2018-07-19T18:23:46.068Z,33.90
2018-07-19T18:26:16.097Z,33.90
2018-07-19T18:28:46.235Z,34.40
2018-07-19T18:31:16.213Z,35.10
2018-07-19T18:33:46.325Z,34.30
2018-07-19T18:36:16.306Z,34.70
2018-07-19T18:38:46.252Z,34.60
2018-07-19T18:41:16.284Z,34.80
2018-07-19T18:43:46.354Z,35.00
2018-07-19T18:46:16.405Z,37.30
2018-07-19T18:48:46.356Z,36.00
2018-07-19T18:51:16.415Z,36.60
2018-07-19T18:53:46.484Z,36.70
2018-07-19T18:56:16.506Z,36.70
2018-07-19T19:01:16.347Z,36.60
2018-07-19T19:03:46.471Z,36.50
2018-07-19T19:06:19.212Z,36.70
2018-07-19T19:11:16.734Z,36.80
2018-07-19T19:13:46.857Z,37.60
2018-07-19T19:16:17.295Z,37.40
2018-07-19T19:21:16.904Z,37.30
2018-07-19T19:23:46.889Z,37.30
2018-07-19T19:26:16.856Z,37.50
2018-07-19T19:28:46.812Z,37.40
2018-07-19T19:31:16.834Z,36.20
2018-07-19T19:33:46.896Z,35.90
2018-07-19T19:36:16.896Z,35.90
2018-07-19T19:38:47.422Z,36.00
2018-07-19T19:41:17.442Z,35.80
2018-07-19T19:46:17.049Z,35.90
2018-07-19T19:48:47.025Z,35.70
2018-07-19T19:51:17.124Z,35.30
2018-07-19T19:56:16.766Z,35.60
2018-07-19T19:58:46.860Z,35.40
2018-07-19T20:01:16.991Z,35.40
2018-07-19T20:03:47.059Z,35.60
2018-07-19T20:06:17.034Z,35.30
2018-07-19T20:08:47.029Z,35.40
2018-07-19T20:11:17.038Z,35.80
2018-07-19T20:13:47.050Z,35.80
2018-07-19T20:16:17.138Z,35.60
2018-07-19T20:18:47.138Z,36.10
2018-07-19T20:21:17.140Z,36.10
2018-07-19T20:26:16.756Z,36.20
2018-07-19T20:28:46.803Z,36.70
2018-07-19T20:31:16.785Z,36.90
2018-07-19T20:33:46.771Z,36.90
2018-07-19T20:36:16.835Z,36.90
2018-07-19T20:38:46.869Z,36.80
2018-07-19T20:41:16.965Z,36.80
2018-07-19T20:43:47.860Z,36.70
2018-07-19T20:48:47.562Z,36.70
2018-07-19T20:51:17.533Z,36.60
2018-07-19T20:53:47.666Z,36.70
2018-07-19T20:56:17.621Z,37.30
2018-07-19T20:58:47.588Z,37.30
2018-07-19T21:01:18.122Z,37.70
2018-07-19T21:03:48.198Z,37.50
2018-07-19T21:06:18.255Z,37.90
2018-07-19T21:08:48.272Z,37.90
2018-07-19T21:11:18.349Z,38.70
2018-07-19T21:13:48.333Z,39.20
2018-07-19T21:16:18.347Z,38.60
2018-07-19T21:18:48.394Z,38.60
2018-07-19T21:21:18.438Z,38.60
2018-07-19T21:23:48.548Z,38.60
2018-07-19T21:26:18.563Z,38.60
2018-07-19T21:28:48.553Z,38.90
2018-07-19T21:31:18.550Z,39.40
2018-07-19T21:33:48.500Z,39.20
2018-07-19T21:36:18.621Z,39.20
2018-07-19T21:38:48.681Z,39.20
2018-07-19T21:41:18.691Z,40.60
2018-07-19T21:48:48.067Z,42.10
2018-07-19T21:51:18.038Z,41.70
2018-07-19T21:53:48.117Z,42.90
2018-07-19T21:56:18.089Z,43.00
2018-07-19T21:58:48.090Z,43.50
2018-07-19T22:03:47.703Z,44.30
2018-07-19T22:06:17.645Z,44.10
2018-07-19T22:08:47.584Z,44.70
2018-07-19T22:11:17.635Z,44.40
2018-07-19T22:13:47.604Z,44.70
2018-07-19T22:16:17.589Z,44.60
2018-07-19T22:26:16.466Z,44.80
2018-07-19T22:28:46.440Z,44.80
2018-07-19T22:31:16.417Z,45.20
2018-07-19T22:33:46.433Z,46.10
2018-07-19T22:36:16.464Z,46.70
2018-07-19T22:38:46.812Z,46.70
2018-07-19T22:41:16.798Z,46.80
2018-07-19T22:43:46.752Z,46.40
2018-07-19T22:48:46.493Z,46.60
2018-07-19T22:51:16.482Z,47.40
2018-07-19T22:56:16.218Z,47.30
2018-07-19T22:58:46.330Z,47.70
2018-07-19T23:01:16.406Z,47.90
2018-07-19T23:03:46.593Z,48.40
2018-07-19T23:06:16.562Z,47.80
2018-07-19T23:08:47.113Z,48.40
2018-07-19T23:11:17.158Z,48.60
2018-07-19T23:13:47.301Z,48.60
2018-07-19T23:19:08.959Z,48.50
2018-07-19T23:21:38.926Z,48.50
2018-07-19T23:24:09.017Z,48.40
2018-07-19T23:26:39.017Z,48.50
2018-07-19T23:29:09.050Z,48.40
2018-07-19T23:31:39.046Z,48.40
2018-07-19T23:34:09.004Z,48.40
2018-07-19T23:37:44.956Z,48.30
2018-07-19T23:43:08.369Z,49.10
2018-07-19T23:45:43.734Z,49.40
2018-07-19T23:48:13.740Z,50.50
2018-07-19T23:50:43.771Z,51.10
2018-07-19T23:53:13.780Z,51.60
2018-07-19T23:55:43.861Z,51.60
2018-07-19T23:58:13.861Z,51.40
